sensor_id;sensor_type;location;lat;lon;timestamp;temperature;humidity
48860;DHT22;34679;51.436;-2.518;2023-02-17T00:00:58;10.70;99.90
48860;DHT22;34679;51.436;-2.518;2023-02-17T00:03:24;10.60;99.90
48860;DHT22;34679;51.436;-2.518;2023-02-17T00:05:50;10.60;99.90
48860;DHT22;34679;51.436;-2.518;2023-02-17T00:08:16;10.60;99.90
48860;DHT22;34679;51.436;-2.518;2023-02-17T00:10:41;10.70;99.90
48860;DHT22;34679;51.436;-2.518;2023-02-17T00:13:07;10.70;99.90
48860;DHT22;34679;51.436;-2.518;2023-02-17T00:15:33;10.60;99.90
48860;DHT22;34679;51.436;-2.518;2023-02-17T00:17:59;10.60;99.90
48860;DHT22;34679;51.436;-2.518;2023-02-17T00:20:24;10.70;99.90
48860;DHT22;34679;51.436;-2.518;2023-02-17T00:22:50;10.60;99.90
48860;DHT22;34679;51.436;-2.518;2023-02-17T00:25:16;10.70;99.90
48860;DHT22;34679;51.436;-2.518;2023-02-17T00:27:42;10.70;99.90
48860;DHT22;34679;51.436;-2.518;2023-02-17T00:30:07;10.60;99.90
48860;DHT22;34679;51.436;-2.518;2023-02-17T00:32:33;10.60;99.90
48860;DHT22;34679;51.436;-2.518;2023-02-17T00:34:59;10.60;99.90
48860;DHT22;34679;51.436;-2.518;2023-02-17T00:37:25;10.70;99.90
48860;DHT22;34679;51.436;-2.518;2023-02-17T00:39:50;10.70;99.90
48860;DHT22;34679;51.436;-2.518;2023-02-17T00:42:16;10.60;99.90
48860;DHT22;34679;51.436;-2.518;2023-02-17T00:44:42;10.70;99.90
48860;DHT22;34679;51.436;-2.518;2023-02-17T00:47:07;10.60;99.90
48860;DHT22;34679;51.436;-2.518;2023-02-17T00:49:33;10.60;99.90
48860;DHT22;34679;51.436;-2.518;2023-02-17T00:52:00;10.60;99.90
48860;DHT22;34679;51.436;-2.518;2023-02-17T00:54:29;10.60;99.90
48860;DHT22;34679;51.436;-2.518;2023-02-17T00:56:54;10.60;99.90
48860;DHT22;34679;51.436;-2.518;2023-02-17T00:59:20;10.60;99.90
48860;DHT22;34679;51.436;-2.518;2023-02-17T01:01:46;10.50;99.90
48860;DHT22;34679;51.436;-2.518;2023-02-17T01:04:12;10.50;99.90
48860;DHT22;34679;51.436;-2.518;2023-02-17T01:06:38;10.50;99.90
48860;DHT22;34679;51.436;-2.518;2023-02-17T01:09:06;10.50;99.90
48860;DHT22;34679;51.436;-2.518;2023-02-17T01:11:33;10.60;99.90
48860;DHT22;34679;51.436;-2.518;2023-02-17T01:14:00;10.60;99.90
48860;DHT22;34679;51.436;-2.518;2023-02-17T01:16:29;10.60;99.90
48860;DHT22;34679;51.436;-2.518;2023-02-17T01:18:57;10.60;99.90
48860;DHT22;34679;51.436;-2.518;2023-02-17T01:21:26;10.60;99.90
48860;DHT22;34679;51.436;-2.518;2023-02-17T01:23:55;10.60;99.90
48860;DHT22;34679;51.436;-2.518;2023-02-17T01:26:22;10.60;99.90
48860;DHT22;34679;51.436;-2.518;2023-02-17T01:28:49;10.70;99.90
48860;DHT22;34679;51.436;-2.518;2023-02-17T01:31:16;10.70;99.90
48860;DHT22;34679;51.436;-2.518;2023-02-17T01:33:42;10.60;99.90
48860;DHT22;34679;51.436;-2.518;2023-02-17T01:36:10;10.70;99.90
48860;DHT22;34679;51.436;-2.518;2023-02-17T01:38:36;10.70;99.90
48860;DHT22;34679;51.436;-2.518;2023-02-17T01:41:02;10.70;99.90
48860;DHT22;34679;51.436;-2.518;2023-02-17T01:43:29;10.70;99.90
48860;DHT22;34679;51.436;-2.518;2023-02-17T01:45:56;10.60;99.90
48860;DHT22;34679;51.436;-2.518;2023-02-17T01:48:43;10.60;99.90
48860;DHT22;34679;51.436;-2.518;2023-02-17T01:51:27;10.60;99.90
48860;DHT22;34679;51.436;-2.518;2023-02-17T01:53:58;10.70;99.90
48860;DHT22;34679;51.436;-2.518;2023-02-17T01:56:26;10.60;99.90
48860;DHT22;34679;51.436;-2.518;2023-02-17T01:58:56;10.60;99.90
48860;DHT22;34679;51.436;-2.518;2023-02-17T02:01:25;10.60;99.90
48860;DHT22;34679;51.436;-2.518;2023-02-17T02:03:52;10.60;99.90
48860;DHT22;34679;51.436;-2.518;2023-02-17T02:06:21;10.60;99.90
48860;DHT22;34679;51.436;-2.518;2023-02-17T02:08:50;10.60;99.90
48860;DHT22;34679;51.436;-2.518;2023-02-17T02:11:17;10.60;99.90
48860;DHT22;34679;51.436;-2.518;2023-02-17T02:13:42;10.60;99.90
48860;DHT22;34679;51.436;-2.518;2023-02-17T02:24:33;10.60;99.90
48860;DHT22;34679;51.436;-2.518;2023-02-17T02:27:20;10.60;99.90
48860;DHT22;34679;51.436;-2.518;2023-02-17T02:30:14;10.60;99.90
48860;DHT22;34679;51.436;-2.518;2023-02-17T02:32:54;10.50;99.90
48860;DHT22;34679;51.436;-2.518;2023-02-17T02:35:46;10.50;99.90
48860;DHT22;34679;51.436;-2.518;2023-02-17T02:38:20;10.50;99.90
48860;DHT22;34679;51.436;-2.518;2023-02-17T02:40:54;10.40;99.90
48860;DHT22;34679;51.436;-2.518;2023-02-17T02:43:23;10.30;99.90
48860;DHT22;34679;51.436;-2.518;2023-02-17T02:45:49;10.30;99.90
48860;DHT22;34679;51.436;-2.518;2023-02-17T02:48:14;10.30;99.90
48860;DHT22;34679;51.436;-2.518;2023-02-17T03:01:48;10.30;99.90
48860;DHT22;34679;51.436;-2.518;2023-02-17T03:06:59;10.20;99.90
48860;DHT22;34679;51.436;-2.518;2023-02-17T03:09:26;10.20;99.90
48860;DHT22;34679;51.436;-2.518;2023-02-17T03:11:55;10.10;99.90
48860;DHT22;34679;51.436;-2.518;2023-02-17T03:14:21;10.10;99.90
48860;DHT22;34679;51.436;-2.518;2023-02-17T03:16:48;10.10;99.90
48860;DHT22;34679;51.436;-2.518;2023-02-17T03:19:16;10.10;99.90
48860;DHT22;34679;51.436;-2.518;2023-02-17T03:24:26;10.10;99.90
48860;DHT22;34679;51.436;-2.518;2023-02-17T03:26:52;10.10;99.90
48860;DHT22;34679;51.436;-2.518;2023-02-17T03:29:18;10.10;99.90
48860;DHT22;34679;51.436;-2.518;2023-02-17T03:31:44;10.10;99.90
48860;DHT22;34679;51.436;-2.518;2023-02-17T03:34:09;10.10;99.90
48860;DHT22;34679;51.436;-2.518;2023-02-17T03:36:35;10.20;99.90
48860;DHT22;34679;51.436;-2.518;2023-02-17T03:39:01;10.20;99.90
48860;DHT22;34679;51.436;-2.518;2023-02-17T03:41:26;10.20;99.90
48860;DHT22;34679;51.436;-2.518;2023-02-17T03:43:52;10.30;99.90
48860;DHT22;34679;51.436;-2.518;2023-02-17T03:46:18;10.30;99.90
48860;DHT22;34679;51.436;-2.518;2023-02-17T03:48:44;10.30;99.90
48860;DHT22;34679;51.436;-2.518;2023-02-17T03:51:15;10.30;99.90
48860;DHT22;34679;51.436;-2.518;2023-02-17T03:53:42;10.30;99.90
48860;DHT22;34679;51.436;-2.518;2023-02-17T03:56:09;10.30;99.90
48860;DHT22;34679;51.436;-2.518;2023-02-17T03:58:35;10.30;99.90
48860;DHT22;34679;51.436;-2.518;2023-02-17T04:01:01;10.40;99.90
48860;DHT22;34679;51.436;-2.518;2023-02-17T04:03:26;10.40;99.90
48860;DHT22;34679;51.436;-2.518;2023-02-17T04:05:52;10.50;99.90
48860;DHT22;34679;51.436;-2.518;2023-02-17T04:08:20;10.50;99.90
48860;DHT22;34679;51.436;-2.518;2023-02-17T04:10:49;10.50;99.90
48860;DHT22;34679;51.436;-2.518;2023-02-17T04:13:15;10.50;99.90
48860;DHT22;34679;51.436;-2.518;2023-02-17T04:15:41;10.50;99.90
48860;DHT22;34679;51.436;-2.518;2023-02-17T04:18:06;10.50;99.90
48860;DHT22;34679;51.436;-2.518;2023-02-17T04:20:32;10.50;99.90
48860;DHT22;34679;51.436;-2.518;2023-02-17T04:22:58;10.50;99.90
48860;DHT22;34679;51.436;-2.518;2023-02-17T04:25:23;10.50;99.90
48860;DHT22;34679;51.436;-2.518;2023-02-17T04:27:49;10.50;99.90
48860;DHT22;34679;51.436;-2.518;2023-02-17T04:30:16;10.50;99.90
48860;DHT22;34679;51.436;-2.518;2023-02-17T04:32:42;10.50;99.90
48860;DHT22;34679;51.436;-2.518;2023-02-17T04:35:07;10.50;99.90
48860;DHT22;34679;51.436;-2.518;2023-02-17T04:37:33;10.60;99.90
48860;DHT22;34679;51.436;-2.518;2023-02-17T04:39:58;10.50;99.90
48860;DHT22;34679;51.436;-2.518;2023-02-17T04:42:24;10.50;99.90
48860;DHT22;34679;51.436;-2.518;2023-02-17T04:44:50;10.60;99.90
48860;DHT22;34679;51.436;-2.518;2023-02-17T04:47:15;10.60;99.90
48860;DHT22;34679;51.436;-2.518;2023-02-17T04:49:41;10.60;99.90
48860;DHT22;34679;51.436;-2.518;2023-02-17T04:52:07;10.60;99.90
48860;DHT22;34679;51.436;-2.518;2023-02-17T04:54:32;10.60;99.90
48860;DHT22;34679;51.436;-2.518;2023-02-17T04:56:58;10.60;99.90
48860;DHT22;34679;51.436;-2.518;2023-02-17T04:59:24;10.60;99.90
48860;DHT22;34679;51.436;-2.518;2023-02-17T05:01:49;10.70;99.90
48860;DHT22;34679;51.436;-2.518;2023-02-17T05:04:15;10.70;99.90
48860;DHT22;34679;51.436;-2.518;2023-02-17T05:06:41;10.70;99.90
48860;DHT22;34679;51.436;-2.518;2023-02-17T05:09:06;10.70;99.90
48860;DHT22;34679;51.436;-2.518;2023-02-17T05:11:32;10.80;99.90
48860;DHT22;34679;51.436;-2.518;2023-02-17T05:13:58;10.80;99.90
48860;DHT22;34679;51.436;-2.518;2023-02-17T05:16:23;10.80;99.90
48860;DHT22;34679;51.436;-2.518;2023-02-17T05:18:49;10.80;99.90
48860;DHT22;34679;51.436;-2.518;2023-02-17T05:21:15;10.90;99.90
48860;DHT22;34679;51.436;-2.518;2023-02-17T05:23:40;10.90;99.90
48860;DHT22;34679;51.436;-2.518;2023-02-17T05:26:09;10.90;99.90
48860;DHT22;34679;51.436;-2.518;2023-02-17T05:28:36;10.90;99.90
48860;DHT22;34679;51.436;-2.518;2023-02-17T05:31:02;11.00;99.90
48860;DHT22;34679;51.436;-2.518;2023-02-17T05:33:29;11.00;99.90
48860;DHT22;34679;51.436;-2.518;2023-02-17T05:35:55;10.90;99.90
48860;DHT22;34679;51.436;-2.518;2023-02-17T05:38:20;11.00;99.90
48860;DHT22;34679;51.436;-2.518;2023-02-17T05:40:46;11.00;99.90
48860;DHT22;34679;51.436;-2.518;2023-02-17T05:43:14;11.00;99.90
48860;DHT22;34679;51.436;-2.518;2023-02-17T05:45:39;11.00;99.90
48860;DHT22;34679;51.436;-2.518;2023-02-17T05:48:05;11.00;99.90
48860;DHT22;34679;51.436;-2.518;2023-02-17T05:50:31;11.00;99.90
48860;DHT22;34679;51.436;-2.518;2023-02-17T05:52:56;11.00;99.90
48860;DHT22;34679;51.436;-2.518;2023-02-17T05:55:22;11.10;99.90
48860;DHT22;34679;51.436;-2.518;2023-02-17T05:57:48;11.10;99.90
48860;DHT22;34679;51.436;-2.518;2023-02-17T06:00:14;11.10;99.90
48860;DHT22;34679;51.436;-2.518;2023-02-17T06:02:40;11.10;99.90
48860;DHT22;34679;51.436;-2.518;2023-02-17T06:05:06;11.10;99.90
48860;DHT22;34679;51.436;-2.518;2023-02-17T06:07:32;11.00;99.90
48860;DHT22;34679;51.436;-2.518;2023-02-17T06:09:58;11.00;99.90
48860;DHT22;34679;51.436;-2.518;2023-02-17T06:12:24;11.10;99.90
48860;DHT22;34679;51.436;-2.518;2023-02-17T06:14:50;11.00;99.90
48860;DHT22;34679;51.436;-2.518;2023-02-17T06:17:15;11.00;99.90
48860;DHT22;34679;51.436;-2.518;2023-02-17T06:19:41;10.90;99.90
48860;DHT22;34679;51.436;-2.518;2023-02-17T06:22:07;10.90;99.90
48860;DHT22;34679;51.436;-2.518;2023-02-17T06:24:32;10.90;99.90
48860;DHT22;34679;51.436;-2.518;2023-02-17T06:26:59;10.90;99.90
48860;DHT22;34679;51.436;-2.518;2023-02-17T06:29:25;10.90;99.90
48860;DHT22;34679;51.436;-2.518;2023-02-17T06:31:52;10.90;99.90
48860;DHT22;34679;51.436;-2.518;2023-02-17T06:34:18;11.00;99.90
48860;DHT22;34679;51.436;-2.518;2023-02-17T06:36:44;10.90;99.90
48860;DHT22;34679;51.436;-2.518;2023-02-17T06:39:10;11.00;99.90
48860;DHT22;34679;51.436;-2.518;2023-02-17T06:41:35;11.10;99.90
48860;DHT22;34679;51.436;-2.518;2023-02-17T06:44:01;11.10;99.90
48860;DHT22;34679;51.436;-2.518;2023-02-17T06:46:27;11.10;99.90
48860;DHT22;34679;51.436;-2.518;2023-02-17T06:48:53;11.10;99.90
48860;DHT22;34679;51.436;-2.518;2023-02-17T06:51:18;11.10;99.90
48860;DHT22;34679;51.436;-2.518;2023-02-17T06:53:44;11.10;99.90
48860;DHT22;34679;51.436;-2.518;2023-02-17T06:56:09;11.00;99.90
48860;DHT22;34679;51.436;-2.518;2023-02-17T06:58:36;11.00;99.90
48860;DHT22;34679;51.436;-2.518;2023-02-17T07:01:02;11.00;99.90
48860;DHT22;34679;51.436;-2.518;2023-02-17T07:03:30;10.90;99.90
48860;DHT22;34679;51.436;-2.518;2023-02-17T07:05:56;11.00;99.90
48860;DHT22;34679;51.436;-2.518;2023-02-17T07:08:22;10.90;99.90
48860;DHT22;34679;51.436;-2.518;2023-02-17T07:10:48;10.90;99.90
48860;DHT22;34679;51.436;-2.518;2023-02-17T07:13:14;10.90;99.90
48860;DHT22;34679;51.436;-2.518;2023-02-17T07:15:40;10.90;99.90
48860;DHT22;34679;51.436;-2.518;2023-02-17T07:18:05;10.80;99.90
48860;DHT22;34679;51.436;-2.518;2023-02-17T07:20:32;10.80;99.90
48860;DHT22;34679;51.436;-2.518;2023-02-17T07:22:59;10.70;99.90
48860;DHT22;34679;51.436;-2.518;2023-02-17T07:25:25;10.70;99.90
48860;DHT22;34679;51.436;-2.518;2023-02-17T07:27:51;10.70;99.90
48860;DHT22;34679;51.436;-2.518;2023-02-17T07:30:17;10.70;99.90
48860;DHT22;34679;51.436;-2.518;2023-02-17T07:32:42;10.70;99.90
48860;DHT22;34679;51.436;-2.518;2023-02-17T07:35:08;10.70;99.90
48860;DHT22;34679;51.436;-2.518;2023-02-17T07:37:34;10.70;99.90
48860;DHT22;34679;51.436;-2.518;2023-02-17T07:40:00;10.70;99.90
48860;DHT22;34679;51.436;-2.518;2023-02-17T07:42:26;10.60;99.90
48860;DHT22;34679;51.436;-2.518;2023-02-17T07:44:52;10.60;99.90
48860;DHT22;34679;51.436;-2.518;2023-02-17T07:47:18;10.60;99.90
48860;DHT22;34679;51.436;-2.518;2023-02-17T07:49:43;10.60;99.90
48860;DHT22;34679;51.436;-2.518;2023-02-17T07:52:09;10.60;99.90
48860;DHT22;34679;51.436;-2.518;2023-02-17T07:54:35;10.60;99.90
48860;DHT22;34679;51.436;-2.518;2023-02-17T07:57:00;10.60;99.90
48860;DHT22;34679;51.436;-2.518;2023-02-17T07:59:26;10.60;99.90
48860;DHT22;34679;51.436;-2.518;2023-02-17T08:01:52;10.60;99.90
48860;DHT22;34679;51.436;-2.518;2023-02-17T08:04:18;10.60;99.90
48860;DHT22;34679;51.436;-2.518;2023-02-17T08:06:43;10.60;99.90
48860;DHT22;34679;51.436;-2.518;2023-02-17T08:09:10;10.70;99.90
48860;DHT22;34679;51.436;-2.518;2023-02-17T08:11:54;10.70;99.90
48860;DHT22;34679;51.436;-2.518;2023-02-17T08:14:38;10.70;99.90
48860;DHT22;34679;51.436;-2.518;2023-02-17T08:17:05;10.70;99.90
48860;DHT22;34679;51.436;-2.518;2023-02-17T08:19:31;10.70;99.90
48860;DHT22;34679;51.436;-2.518;2023-02-17T08:21:56;10.80;99.90
48860;DHT22;34679;51.436;-2.518;2023-02-17T08:24:22;10.70;99.90
48860;DHT22;34679;51.436;-2.518;2023-02-17T08:26:49;10.80;99.90
48860;DHT22;34679;51.436;-2.518;2023-02-17T08:29:15;10.80;99.90
48860;DHT22;34679;51.436;-2.518;2023-02-17T08:31:42;10.90;99.90
48860;DHT22;34679;51.436;-2.518;2023-02-17T08:34:09;10.80;99.90
48860;DHT22;34679;51.436;-2.518;2023-02-17T08:36:35;10.80;99.90
48860;DHT22;34679;51.436;-2.518;2023-02-17T08:39:08;10.90;99.90
48860;DHT22;34679;51.436;-2.518;2023-02-17T08:41:39;10.90;99.90
48860;DHT22;34679;51.436;-2.518;2023-02-17T08:44:13;10.90;99.90
48860;DHT22;34679;51.436;-2.518;2023-02-17T08:46:40;10.90;99.90
48860;DHT22;34679;51.436;-2.518;2023-02-17T08:49:06;10.90;99.90
48860;DHT22;34679;51.436;-2.518;2023-02-17T08:51:33;11.00;99.90
48860;DHT22;34679;51.436;-2.518;2023-02-17T08:53:59;11.00;99.90
48860;DHT22;34679;51.436;-2.518;2023-02-17T08:56:26;11.10;99.90
48860;DHT22;34679;51.436;-2.518;2023-02-17T08:58:52;11.10;99.90
48860;DHT22;34679;51.436;-2.518;2023-02-17T09:01:19;11.10;99.90
48860;DHT22;34679;51.436;-2.518;2023-02-17T09:03:46;11.10;99.90
48860;DHT22;34679;51.436;-2.518;2023-02-17T09:06:12;11.10;99.90
48860;DHT22;34679;51.436;-2.518;2023-02-17T09:08:38;11.10;99.90
48860;DHT22;34679;51.436;-2.518;2023-02-17T09:11:06;11.20;99.90
48860;DHT22;34679;51.436;-2.518;2023-02-17T09:13:32;11.20;99.90
48860;DHT22;34679;51.436;-2.518;2023-02-17T09:15:58;11.30;99.90
48860;DHT22;34679;51.436;-2.518;2023-02-17T09:18:24;11.30;99.90
48860;DHT22;34679;51.436;-2.518;2023-02-17T09:20:50;11.30;99.90
48860;DHT22;34679;51.436;-2.518;2023-02-17T09:23:16;11.40;99.90
48860;DHT22;34679;51.436;-2.518;2023-02-17T09:25:43;11.40;99.90
48860;DHT22;34679;51.436;-2.518;2023-02-17T09:28:08;11.50;99.90
48860;DHT22;34679;51.436;-2.518;2023-02-17T09:30:34;11.60;99.90
48860;DHT22;34679;51.436;-2.518;2023-02-17T09:33:01;11.50;99.90
48860;DHT22;34679;51.436;-2.518;2023-02-17T09:35:27;11.60;99.90
48860;DHT22;34679;51.436;-2.518;2023-02-17T09:37:53;11.60;99.90
48860;DHT22;34679;51.436;-2.518;2023-02-17T09:40:31;11.70;99.90
48860;DHT22;34679;51.436;-2.518;2023-02-17T09:43:02;11.80;99.90
48860;DHT22;34679;51.436;-2.518;2023-02-17T09:45:33;11.80;99.90
48860;DHT22;34679;51.436;-2.518;2023-02-17T09:48:04;11.80;99.90
48860;DHT22;34679;51.436;-2.518;2023-02-17T09:50:33;11.90;99.90
48860;DHT22;34679;51.436;-2.518;2023-02-17T09:55:45;11.90;99.90
48860;DHT22;34679;51.436;-2.518;2023-02-17T10:01:09;12.00;99.90
48860;DHT22;34679;51.436;-2.518;2023-02-17T10:03:43;11.90;99.90
48860;DHT22;34679;51.436;-2.518;2023-02-17T10:06:11;11.90;99.90
48860;DHT22;34679;51.436;-2.518;2023-02-17T10:09:03;12.00;99.90
48860;DHT22;34679;51.436;-2.518;2023-02-17T10:11:38;12.10;99.90
48860;DHT22;34679;51.436;-2.518;2023-02-17T10:14:15;12.20;99.90
48860;DHT22;34679;51.436;-2.518;2023-02-17T10:16:50;12.20;99.90
48860;DHT22;34679;51.436;-2.518;2023-02-17T10:19:20;12.20;99.90
48860;DHT22;34679;51.436;-2.518;2023-02-17T10:21:56;12.20;99.90
48860;DHT22;34679;51.436;-2.518;2023-02-17T10:24:23;12.10;99.90
48860;DHT22;34679;51.436;-2.518;2023-02-17T10:33:01;12.10;99.90
48860;DHT22;34679;51.436;-2.518;2023-02-17T10:35:45;12.20;99.90
48860;DHT22;34679;51.436;-2.518;2023-02-17T10:41:25;12.30;99.90
48860;DHT22;34679;51.436;-2.518;2023-02-17T10:43:51;12.30;99.90
48860;DHT22;34679;51.436;-2.518;2023-02-17T10:46:25;12.30;99.90
48860;DHT22;34679;51.436;-2.518;2023-02-17T10:48:53;12.50;99.90
48860;DHT22;34679;51.436;-2.518;2023-02-17T10:51:24;12.40;99.90
48860;DHT22;34679;51.436;-2.518;2023-02-17T10:53:56;12.50;99.90
48860;DHT22;34679;51.436;-2.518;2023-02-17T10:56:34;12.50;99.90
48860;DHT22;34679;51.436;-2.518;2023-02-17T10:59:17;12.50;99.90
48860;DHT22;34679;51.436;-2.518;2023-02-17T11:01:45;12.50;99.90
48860;DHT22;34679;51.436;-2.518;2023-02-17T11:04:12;12.50;99.90
48860;DHT22;34679;51.436;-2.518;2023-02-17T11:06:48;12.50;99.90
48860;DHT22;34679;51.436;-2.518;2023-02-17T11:09:28;12.50;99.90
48860;DHT22;34679;51.436;-2.518;2023-02-17T11:12:09;12.60;99.90
48860;DHT22;34679;51.436;-2.518;2023-02-17T11:14:36;12.60;99.90
48860;DHT22;34679;51.436;-2.518;2023-02-17T11:19:39;12.50;99.90
48860;DHT22;34679;51.436;-2.518;2023-02-17T11:22:25;12.50;99.90
48860;DHT22;34679;51.436;-2.518;2023-02-17T11:24:58;12.40;99.90
48860;DHT22;34679;51.436;-2.518;2023-02-17T11:27:24;12.40;99.90
48860;DHT22;34679;51.436;-2.518;2023-02-17T11:29:51;12.30;99.90
48860;DHT22;34679;51.436;-2.518;2023-02-17T11:32:17;12.40;99.90
48860;DHT22;34679;51.436;-2.518;2023-02-17T11:34:56;12.30;99.90
48860;DHT22;34679;51.436;-2.518;2023-02-17T11:37:23;12.30;99.90
48860;DHT22;34679;51.436;-2.518;2023-02-17T11:39:51;12.30;99.90
48860;DHT22;34679;51.436;-2.518;2023-02-17T11:42:22;12.30;99.90
48860;DHT22;34679;51.436;-2.518;2023-02-17T11:44:48;12.30;99.90
48860;DHT22;34679;51.436;-2.518;2023-02-17T11:53:19;12.50;99.90
48860;DHT22;34679;51.436;-2.518;2023-02-17T11:55:58;12.70;99.90
48860;DHT22;34679;51.436;-2.518;2023-02-17T12:01:21;12.70;99.90
48860;DHT22;34679;51.436;-2.518;2023-02-17T12:09:47;12.70;99.90
48860;DHT22;34679;51.436;-2.518;2023-02-17T12:25:33;12.50;99.90
48860;DHT22;34679;51.436;-2.518;2023-02-17T12:30:43;12.40;99.90
48860;DHT22;34679;51.436;-2.518;2023-02-17T12:33:26;12.40;99.90
48860;DHT22;34679;51.436;-2.518;2023-02-17T12:36:01;12.30;99.90
48860;DHT22;34679;51.436;-2.518;2023-02-17T12:38:34;12.30;99.90
48860;DHT22;34679;51.436;-2.518;2023-02-17T12:41:03;12.20;99.90
48860;DHT22;34679;51.436;-2.518;2023-02-17T12:43:43;12.30;99.90
48860;DHT22;34679;51.436;-2.518;2023-02-17T12:46:14;12.30;99.90
48860;DHT22;34679;51.436;-2.518;2023-02-17T12:48:50;12.30;99.90
48860;DHT22;34679;51.436;-2.518;2023-02-17T12:53:46;12.30;99.90
48860;DHT22;34679;51.436;-2.518;2023-02-17T12:56:32;12.20;99.90
48860;DHT22;34679;51.436;-2.518;2023-02-17T13:02:05;12.10;99.90
48860;DHT22;34679;51.436;-2.518;2023-02-17T13:04:31;12.20;99.90
48860;DHT22;34679;51.436;-2.518;2023-02-17T13:07:05;12.10;99.90
48860;DHT22;34679;51.436;-2.518;2023-02-17T13:09:35;12.10;99.90
48860;DHT22;34679;51.436;-2.518;2023-02-17T13:14:43;12.10;99.90
48860;DHT22;34679;51.436;-2.518;2023-02-17T13:22:39;11.90;99.90
48860;DHT22;34679;51.436;-2.518;2023-02-17T13:25:06;11.90;99.90
48860;DHT22;34679;51.436;-2.518;2023-02-17T13:27:34;11.80;99.90
48860;DHT22;34679;51.436;-2.518;2023-02-17T13:32:42;11.90;99.90
48860;DHT22;34679;51.436;-2.518;2023-02-17T13:35:30;11.90;99.90
48860;DHT22;34679;51.436;-2.518;2023-02-17T13:37:56;11.80;99.90
48860;DHT22;34679;51.436;-2.518;2023-02-17T13:42:52;11.80;99.90
48860;DHT22;34679;51.436;-2.518;2023-02-17T13:45:26;11.70;99.90
48860;DHT22;34679;51.436;-2.518;2023-02-17T13:47:55;11.70;99.90
48860;DHT22;34679;51.436;-2.518;2023-02-17T13:50:51;11.60;99.90
48860;DHT22;34679;51.436;-2.518;2023-02-17T13:53:33;11.70;99.90
48860;DHT22;34679;51.436;-2.518;2023-02-17T13:56:26;11.70;99.90
48860;DHT22;34679;51.436;-2.518;2023-02-17T13:58:53;11.70;99.90
48860;DHT22;34679;51.436;-2.518;2023-02-17T14:01:21;11.70;99.90
48860;DHT22;34679;51.436;-2.518;2023-02-17T14:03:53;11.80;99.90
48860;DHT22;34679;51.436;-2.518;2023-02-17T14:06:37;11.80;99.90
48860;DHT22;34679;51.436;-2.518;2023-02-17T14:11:52;11.80;99.90
48860;DHT22;34679;51.436;-2.518;2023-02-17T14:14:19;11.80;99.90
48860;DHT22;34679;51.436;-2.518;2023-02-17T14:16:45;11.80;99.90
48860;DHT22;34679;51.436;-2.518;2023-02-17T14:19:19;11.90;99.90
48860;DHT22;34679;51.436;-2.518;2023-02-17T14:21:59;11.90;99.90
48860;DHT22;34679;51.436;-2.518;2023-02-17T14:24:31;11.80;99.90
48860;DHT22;34679;51.436;-2.518;2023-02-17T14:27:05;11.80;99.90
48860;DHT22;34679;51.436;-2.518;2023-02-17T14:29:46;11.90;99.90
48860;DHT22;34679;51.436;-2.518;2023-02-17T14:32:30;11.90;99.90
48860;DHT22;34679;51.436;-2.518;2023-02-17T14:35:21;11.80;99.90
48860;DHT22;34679;51.436;-2.518;2023-02-17T14:37:47;11.80;99.90
48860;DHT22;34679;51.436;-2.518;2023-02-17T14:40:19;11.90;99.90
48860;DHT22;34679;51.436;-2.518;2023-02-17T14:42:45;11.90;99.90
48860;DHT22;34679;51.436;-2.518;2023-02-17T14:45:11;11.90;99.90
48860;DHT22;34679;51.436;-2.518;2023-02-17T14:47:37;11.80;99.90
48860;DHT22;34679;51.436;-2.518;2023-02-17T14:50:03;11.90;99.90
48860;DHT22;34679;51.436;-2.518;2023-02-17T14:52:28;12.00;99.90
48860;DHT22;34679;51.436;-2.518;2023-02-17T14:54:54;11.90;99.90
48860;DHT22;34679;51.436;-2.518;2023-02-17T14:57:25;11.90;99.90
48860;DHT22;34679;51.436;-2.518;2023-02-17T14:59:51;11.80;99.90
48860;DHT22;34679;51.436;-2.518;2023-02-17T15:02:22;11.80;99.90
48860;DHT22;34679;51.436;-2.518;2023-02-17T15:04:48;11.70;99.90
48860;DHT22;34679;51.436;-2.518;2023-02-17T15:07:16;11.70;99.90
48860;DHT22;34679;51.436;-2.518;2023-02-17T15:09:44;11.80;99.90
48860;DHT22;34679;51.436;-2.518;2023-02-17T15:12:19;11.80;99.90
48860;DHT22;34679;51.436;-2.518;2023-02-17T15:14:45;11.70;99.90
48860;DHT22;34679;51.436;-2.518;2023-02-17T15:17:11;11.70;99.90
48860;DHT22;34679;51.436;-2.518;2023-02-17T15:19:37;11.60;99.90
48860;DHT22;34679;51.436;-2.518;2023-02-17T15:22:03;11.60;99.90
48860;DHT22;34679;51.436;-2.518;2023-02-17T15:24:32;11.60;99.90
48860;DHT22;34679;51.436;-2.518;2023-02-17T15:26:58;11.60;99.90
48860;DHT22;34679;51.436;-2.518;2023-02-17T15:29:25;11.60;99.90
48860;DHT22;34679;51.436;-2.518;2023-02-17T15:31:55;11.60;99.90
48860;DHT22;34679;51.436;-2.518;2023-02-17T15:34:25;11.60;99.90
48860;DHT22;34679;51.436;-2.518;2023-02-17T15:36:52;11.60;99.90
48860;DHT22;34679;51.436;-2.518;2023-02-17T15:39:19;11.60;99.90
48860;DHT22;34679;51.436;-2.518;2023-02-17T15:41:47;11.60;99.90
48860;DHT22;34679;51.436;-2.518;2023-02-17T15:44:20;11.60;99.90
48860;DHT22;34679;51.436;-2.518;2023-02-17T15:46:49;11.60;99.90
48860;DHT22;34679;51.436;-2.518;2023-02-17T15:49:15;11.50;99.90
48860;DHT22;34679;51.436;-2.518;2023-02-17T15:51:41;11.40;99.90
48860;DHT22;34679;51.436;-2.518;2023-02-17T15:54:07;11.40;99.90
48860;DHT22;34679;51.436;-2.518;2023-02-17T15:56:49;11.40;99.90
48860;DHT22;34679;51.436;-2.518;2023-02-17T15:59:18;11.40;99.90
48860;DHT22;34679;51.436;-2.518;2023-02-17T16:01:45;11.50;99.90
48860;DHT22;34679;51.436;-2.518;2023-02-17T16:04:12;11.60;99.90
48860;DHT22;34679;51.436;-2.518;2023-02-17T16:06:39;11.50;99.90
48860;DHT22;34679;51.436;-2.518;2023-02-17T16:09:05;11.40;99.90
48860;DHT22;34679;51.436;-2.518;2023-02-17T16:11:31;11.40;99.90
48860;DHT22;34679;51.436;-2.518;2023-02-17T16:13:58;11.40;99.90
48860;DHT22;34679;51.436;-2.518;2023-02-17T16:16:27;11.40;99.90
48860;DHT22;34679;51.436;-2.518;2023-02-17T16:18:56;11.40;99.90
48860;DHT22;34679;51.436;-2.518;2023-02-17T16:21:22;11.30;99.90
48860;DHT22;34679;51.436;-2.518;2023-02-17T16:23:48;11.40;99.90
48860;DHT22;34679;51.436;-2.518;2023-02-17T16:26:32;11.40;99.90
48860;DHT22;34679;51.436;-2.518;2023-02-17T16:29:00;11.40;99.90
48860;DHT22;34679;51.436;-2.518;2023-02-17T16:31:26;11.40;99.90
48860;DHT22;34679;51.436;-2.518;2023-02-17T16:33:52;11.40;99.90
48860;DHT22;34679;51.436;-2.518;2023-02-17T16:36:23;11.40;99.90
48860;DHT22;34679;51.436;-2.518;2023-02-17T16:38:50;11.30;99.90
48860;DHT22;34679;51.436;-2.518;2023-02-17T16:41:18;11.30;99.90
48860;DHT22;34679;51.436;-2.518;2023-02-17T16:43:44;11.30;99.90
48860;DHT22;34679;51.436;-2.518;2023-02-17T16:46:26;11.30;99.90
48860;DHT22;34679;51.436;-2.518;2023-02-17T16:48:57;11.30;99.90
48860;DHT22;34679;51.436;-2.518;2023-02-17T16:51:24;11.20;99.90
48860;DHT22;34679;51.436;-2.518;2023-02-17T16:53:50;11.20;99.90
48860;DHT22;34679;51.436;-2.518;2023-02-17T16:56:21;11.20;99.90
48860;DHT22;34679;51.436;-2.518;2023-02-17T16:58:48;11.20;99.90